Time,TemperatureF,DewpointF,PressureIn,WindDirection,WindDirectionDegrees,WindSpeedMPH,WindSpeedGustMPH,Humidity,HourlyPrecipIn,Conditions,Clouds,dailyrainin,SoftwareType,DateUTC
2013-02-02 00:02:00,31.9,17.5,30.31,WNW,288,0.0,0.0,55,0.00,,,0.00,Wunderground v.1.15,2013-02-02 05:02:00,
2013-02-02 00:22:00,31.3,17.8,30.31,WNW,288,0.0,0.0,57,0.00,,,0.00,Wunderground v.1.15,2013-02-02 05:22:00,
2013-02-02 00:32:00,31.0,17.9,30.31,WNW,288,0.0,0.0,58,0.00,,,0.00,Wunderground v.1.15,2013-02-02 05:32:00,
2013-02-02 00:42:00,30.8,18.5,30.31,WNW,288,0.0,0.0,60,0.00,,,0.00,Wunderground v.1.15,2013-02-02 05:42:00,
2013-02-02 00:52:00,30.5,17.9,30.31,WNW,288,0.0,0.0,59,0.00,,,0.00,Wunderground v.1.15,2013-02-02 05:52:00,
2013-02-02 01:02:00,30.3,18.8,30.31,WNW,288,0.0,0.0,62,0.00,,,0.00,Wunderground v.1.15,2013-02-02 06:02:00,
2013-02-02 01:12:00,30.0,18.5,30.31,WNW,288,0.0,0.0,62,0.00,,,0.00,Wunderground v.1.15,2013-02-02 06:12:00,
2013-02-02 01:22:00,29.8,18.7,30.31,WNW,288,0.0,0.0,63,0.00,,,0.00,Wunderground v.1.15,2013-02-02 06:22:00,
2013-02-02 01:52:00,29.1,18.8,30.31,WNW,288,0.0,0.0,65,0.00,,,0.00,Wunderground v.1.15,2013-02-02 06:52:00,
2013-02-02 02:02:00,28.8,18.5,30.31,WNW,288,0.0,0.0,65,0.00,,,0.00,Wunderground v.1.15,2013-02-02 07:02:00,
2013-02-02 02:12:00,28.7,18.4,30.31,WNW,288,0.0,0.0,65,0.00,,,0.00,Wunderground v.1.15,2013-02-02 07:12:00,
2013-02-02 02:21:00,28.6,19.0,30.31,WNW,288,0.0,0.0,67,0.00,,,0.00,Wunderground v.1.15,2013-02-02 07:21:00,
2013-02-02 02:31:00,28.5,19.3,30.31,WNW,288,0.0,0.0,68,0.00,,,0.00,Wunderground v.1.15,2013-02-02 07:31:00,
2013-02-02 02:42:00,28.4,18.8,30.31,WNW,288,0.0,0.0,67,0.00,,,0.00,Wunderground v.1.15,2013-02-02 07:42:00,
2013-02-02 02:52:00,28.3,19.4,30.31,WNW,288,0.0,0.0,69,0.00,,,0.00,Wunderground v.1.15,2013-02-02 07:52:00,
2013-02-02 03:12:00,28.0,19.1,30.30,WNW,288,0.0,0.0,69,0.00,,,0.00,Wunderground v.1.15,2013-02-02 08:12:00,
2013-02-02 03:22:00,27.9,20.0,30.31,WNW,288,0.0,0.0,72,0.00,,,0.00,Wunderground v.1.15,2013-02-02 08:22:00,
2013-02-02 03:32:00,27.8,19.6,30.31,WNW,288,0.0,0.0,71,0.00,,,0.00,Wunderground v.1.15,2013-02-02 08:32:00,
2013-02-02 03:42:00,27.8,19.9,30.31,WNW,288,0.0,0.0,72,0.00,,,0.00,Wunderground v.1.15,2013-02-02 08:42:00,
2013-02-02 03:52:00,27.8,19.9,30.32,WNW,288,0.0,0.0,72,0.00,,,0.00,Wunderground v.1.15,2013-02-02 08:52:00,
2013-02-02 04:02:00,27.6,19.8,30.32,WNW,288,0.0,0.0,72,0.00,,,0.00,Wunderground v.1.15,2013-02-02 09:02:00,
2013-02-02 04:12:00,27.4,19.6,30.31,WNW,288,0.0,0.0,72,0.00,,,0.00,Wunderground v.1.15,2013-02-02 09:12:00,
2013-02-02 04:22:00,27.3,19.8,30.31,WNW,288,0.0,0.0,73,0.00,,,0.00,Wunderground v.1.15,2013-02-02 09:22:00,
2013-02-02 04:32:00,27.1,19.6,30.31,WNW,288,0.0,0.0,73,0.00,,,0.00,Wunderground v.1.15,2013-02-02 09:32:00,
2013-02-02 04:42:00,27.0,19.8,30.30,WNW,288,0.0,0.0,74,0.00,,,0.00,Wunderground v.1.15,2013-02-02 09:42:00,
2013-02-02 04:52:00,26.9,20.0,30.30,WNW,288,0.0,0.0,75,0.00,,,0.00,Wunderground v.1.15,2013-02-02 09:52:00,
2013-02-02 05:02:00,26.7,19.5,30.30,WNW,288,0.0,0.0,74,0.00,,,0.00,Wunderground v.1.15,2013-02-02 10:02:00,
2013-02-02 05:12:00,26.6,19.7,30.30,WNW,288,0.0,0.0,75,0.00,,,0.00,Wunderground v.1.15,2013-02-02 10:12:00,
2013-02-02 05:21:00,26.6,19.7,30.30,WNW,288,0.0,0.0,75,0.00,,,0.00,Wunderground v.1.15,2013-02-02 10:21:00,
2013-02-02 05:31:00,26.6,20.4,30.30,WNW,288,0.0,0.0,77,0.00,,,0.00,Wunderground v.1.15,2013-02-02 10:31:00,
2013-02-02 05:41:00,26.5,20.0,30.31,WNW,288,0.0,0.0,76,0.00,,,0.00,Wunderground v.1.15,2013-02-02 10:41:00,
2013-02-02 06:12:00,26.0,19.8,30.31,WNW,288,0.0,0.0,77,0.00,,,0.00,Wunderground v.1.15,2013-02-02 11:12:00,
2013-02-02 06:21:00,25.8,19.9,30.32,WNW,288,0.0,0.0,78,0.00,,,0.00,Wunderground v.1.15,2013-02-02 11:21:00,
2013-02-02 06:31:00,25.8,19.9,30.32,WNW,288,0.0,0.0,78,0.00,,,0.00,Wunderground v.1.15,2013-02-02 11:31:00,
2013-02-02 06:41:00,25.8,19.9,30.31,WNW,288,0.0,0.0,78,0.00,,,0.00,Wunderground v.1.15,2013-02-02 11:41:00,
2013-02-02 06:53:00,25.9,20.6,30.31,WNW,288,0.0,0.0,80,0.00,,,0.00,Wunderground v.1.15,2013-02-02 11:53:00,
2013-02-02 07:02:00,26.1,21.1,30.31,WNW,288,0.0,0.0,81,0.00,,,0.00,Wunderground v.1.15,2013-02-02 12:02:00,
2013-02-02 07:12:00,26.3,21.0,30.31,WNW,288,0.0,0.0,80,0.00,,,0.00,Wunderground v.1.15,2013-02-02 12:12:00,
2013-02-02 07:32:00,26.5,21.2,30.31,ENE,67,0.0,0.0,80,0.00,,,0.00,Wunderground v.1.15,2013-02-02 12:32:00,
2013-02-02 07:42:00,26.8,21.2,30.30,ENE,67,0.0,0.0,79,0.00,,,0.00,Wunderground v.1.15,2013-02-02 12:42:00,
2013-02-02 07:52:00,27.2,21.2,30.31,ENE,67,0.0,0.0,78,0.00,,,0.00,Wunderground v.1.15,2013-02-02 12:52:00,
2013-02-02 08:12:00,28.9,22.6,30.32,ENE,67,0.0,0.0,77,0.00,,,0.00,Wunderground v.1.15,2013-02-02 13:12:00,
2013-02-02 08:22:00,30.2,22.9,30.32,ENE,67,0.0,0.0,74,0.00,,,0.00,Wunderground v.1.15,2013-02-02 13:22:00,
2013-02-02 08:32:00,30.6,22.6,30.32,ENE,67,0.0,0.0,72,0.00,,,0.00,Wunderground v.1.15,2013-02-02 13:32:00,
2013-02-02 08:42:00,31.4,22.7,30.32,ENE,69,0.0,0.0,70,0.00,,,0.00,Wunderground v.1.15,2013-02-02 13:42:00,
2013-02-02 08:52:00,33.2,23.8,30.32,ENE,77,0.0,0.0,68,0.00,,,0.00,Wunderground v.1.15,2013-02-02 13:52:00,
2013-02-02 09:02:00,34.9,22.0,30.32,East,82,1.0,1.0,59,0.00,,,0.00,Wunderground v.1.15,2013-02-02 14:02:00,
2013-02-02 09:12:00,35.9,21.7,30.32,East,101,1.0,1.0,56,0.00,,,0.00,Wunderground v.1.15,2013-02-02 14:12:00,
2013-02-02 09:22:00,36.8,21.7,30.32,ESE,117,1.0,1.0,54,0.00,,,0.00,Wunderground v.1.15,2013-02-02 14:22:00,
2013-02-02 09:32:00,37.2,21.2,30.32,ESE,107,2.0,2.0,52,0.00,,,0.00,Wunderground v.1.15,2013-02-02 14:32:00,
2013-02-02 09:41:00,37.9,21.8,30.31,ESE,108,2.0,7.0,52,0.00,,,0.00,Wunderground v.1.15,2013-02-02 14:41:00,
2013-02-02 09:53:00,38.5,20.5,30.31,South,182,3.0,3.0,48,0.00,,,0.00,Wunderground v.1.15,2013-02-02 14:53:00,
2013-02-02 10:03:00,38.8,20.3,30.31,East,87,4.0,6.0,47,0.00,,,0.00,Wunderground v.1.15,2013-02-02 15:03:00,
2013-02-02 10:12:00,39.4,21.3,30.30,ESE,105,3.0,3.0,48,0.00,,,0.00,Wunderground v.1.15,2013-02-02 15:12:00,
2013-02-02 10:22:00,40.4,21.2,30.30,South,184,2.0,2.0,46,0.00,,,0.00,Wunderground v.1.15,2013-02-02 15:22:00,
2013-02-02 10:32:00,40.7,21.0,30.30,ESE,105,2.0,3.0,45,0.00,,,0.00,Wunderground v.1.15,2013-02-02 15:32:00,
2013-02-02 11:12:00,43.1,21.0,30.29,SE,143,2.0,2.0,41,0.00,,,0.00,Wunderground v.1.15,2013-02-02 16:12:00,
2013-02-02 11:22:00,43.8,21.6,30.28,SSE,167,2.0,3.0,41,0.00,,,0.00,Wunderground v.1.15,2013-02-02 16:22:00,
2013-02-02 11:42:00,45.6,22.0,30.27,West,261,2.0,2.0,39,0.00,,,0.00,Wunderground v.1.15,2013-02-02 16:42:00,
2013-02-02 11:52:00,47.1,23.4,30.26,SSW,213,1.0,1.0,39,0.00,,,0.00,Wunderground v.1.15,2013-02-02 16:52:00,
2013-02-02 12:12:00,48.2,20.4,30.25,SSE,164,2.0,5.0,33,0.00,,,0.00,Wunderground v.1.15,2013-02-02 17:12:00,
2013-02-02 12:22:00,48.2,20.4,30.23,SW,219,3.0,3.0,33,0.00,,,0.00,Wunderground v.1.15,2013-02-02 17:22:00,
2013-02-02 12:31:00,48.6,20.8,30.23,East,95,3.0,3.0,33,0.00,,,0.00,Wunderground v.1.15,2013-02-02 17:31:00,
2013-02-02 12:43:00,48.9,20.3,30.22,SSW,197,3.0,3.0,32,0.00,,,0.00,Wunderground v.1.15,2013-02-02 17:43:00,
2013-02-02 13:03:00,49.8,21.1,30.20,SW,221,2.0,5.0,32,0.00,,,0.00,Wunderground v.1.15,2013-02-02 18:03:00,
2013-02-02 13:12:00,50.4,20.9,30.19,SE,144,2.0,2.0,31,0.00,,,0.00,Wunderground v.1.15,2013-02-02 18:12:00,
2013-02-02 13:22:00,50.6,20.3,30.17,ESE,120,2.0,2.0,30,0.00,,,0.00,Wunderground v.1.15,2013-02-02 18:22:00,
2013-02-02 13:42:00,52.4,21.8,30.16,NNW,338,1.0,2.0,30,0.00,,,0.00,Wunderground v.1.15,2013-02-02 18:42:00,
2013-02-02 13:52:00,53.4,21.9,30.16,West,281,1.0,1.0,29,0.00,,,0.00,Wunderground v.1.15,2013-02-02 18:52:00,
2013-02-02 14:02:00,53.3,21.8,30.16,WSW,240,1.0,4.0,29,0.00,,,0.00,Wunderground v.1.15,2013-02-02 19:02:00,
2013-02-02 14:12:00,53.8,23.1,30.16,South,169,2.0,2.0,30,0.00,,,0.00,Wunderground v.1.15,2013-02-02 19:12:00,
2013-02-02 14:22:00,53.9,22.3,30.15,NW,323,3.0,4.0,29,0.00,,,0.00,Wunderground v.1.15,2013-02-02 19:22:00,
2013-02-02 14:32:00,54.5,22.9,30.15,SSW,194,1.0,1.0,29,0.00,,,0.00,Wunderground v.1.15,2013-02-02 19:32:00,
2013-02-02 14:42:00,54.7,23.0,30.14,SSW,194,3.0,3.0,29,0.00,,,0.00,Wunderground v.1.15,2013-02-02 19:42:00,
2013-02-02 14:52:00,54.8,23.1,30.14,SW,215,1.0,1.0,29,0.00,,,0.00,Wunderground v.1.15,2013-02-02 19:52:00,
2013-02-02 15:02:00,54.9,22.4,30.14,WSW,238,2.0,2.0,28,0.00,,,0.00,Wunderground v.1.15,2013-02-02 20:02:00,
2013-02-02 15:12:00,54.9,23.2,30.13,NW,321,2.0,2.0,29,0.00,,,0.00,Wunderground v.1.15,2013-02-02 20:12:00,
2013-02-02 15:22:00,55.5,22.9,30.13,SW,216,1.0,4.0,28,0.00,,,0.00,Wunderground v.1.15,2013-02-02 20:22:00,
2013-02-02 15:31:00,55.4,23.6,30.13,South,178,2.0,2.0,29,0.00,,,0.00,Wunderground v.1.15,2013-02-02 20:31:00,
2013-02-02 15:43:00,55.8,23.1,30.13,SW,225,2.0,4.0,28,0.00,,,0.00,Wunderground v.1.15,2013-02-02 20:43:00,
2013-02-02 15:52:00,55.4,23.6,30.12,SW,216,2.0,2.0,29,0.00,,,0.00,Wunderground v.1.15,2013-02-02 20:52:00,
2013-02-02 16:03:00,55.1,23.4,30.12,NW,320,2.0,3.0,29,0.00,,,0.00,Wunderground v.1.15,2013-02-02 21:03:00,
2013-02-02 16:12:00,55.0,23.3,30.12,SSW,213,2.0,3.0,29,0.00,,,0.00,Wunderground v.1.15,2013-02-02 21:12:00,
2013-02-02 16:32:00,54.8,24.7,30.11,SSW,209,1.0,1.0,31,0.00,,,0.00,Wunderground v.1.15,2013-02-02 21:32:00,
2013-02-02 16:52:00,54.3,24.3,30.10,South,190,1.0,1.0,31,0.00,,,0.00,Wunderground v.1.15,2013-02-02 21:52:00,
2013-02-02 17:02:00,54.1,24.1,30.10,South,187,1.0,1.0,31,0.00,,,0.00,Wunderground v.1.15,2013-02-02 22:02:00,
2013-02-02 17:22:00,53.4,25.7,30.09,SSE,162,0.0,0.0,34,0.00,,,0.00,Wunderground v.1.15,2013-02-02 22:22:00,
2013-02-02 17:32:00,52.8,25.2,30.09,SSE,162,0.0,0.0,34,0.00,,,0.00,Wunderground v.1.15,2013-02-02 22:32:00,
2013-02-02 17:42:00,52.1,24.6,30.08,South,184,0.0,0.0,34,0.00,,,0.00,Wunderground v.1.15,2013-02-02 22:42:00,
2013-02-02 17:52:00,51.3,25.9,30.08,South,184,0.0,0.0,37,0.00,,,0.00,Wunderground v.1.15,2013-02-02 22:52:00,
2013-02-02 18:02:00,50.6,25.3,30.08,South,184,0.0,0.0,37,0.00,,,0.00,Wunderground v.1.15,2013-02-02 23:02:00,
2013-02-02 18:12:00,49.6,26.2,30.07,South,184,0.0,0.0,40,0.00,,,0.00,Wunderground v.1.15,2013-02-02 23:12:00,
2013-02-02 18:21:00,48.8,27.8,30.07,South,184,0.0,0.0,44,0.00,,,0.00,Wunderground v.1.15,2013-02-02 23:21:00,
2013-02-02 18:31:00,47.8,28.0,30.07,South,184,0.0,0.0,46,0.00,,,0.00,Wunderground v.1.15,2013-02-02 23:31:00,
2013-02-02 18:42:00,46.8,27.6,30.07,South,184,0.0,0.0,47,0.00,,,0.00,Wunderground v.1.15,2013-02-02 23:42:00,
2013-02-02 18:52:00,46.0,27.4,30.07,South,184,0.0,0.0,48,0.00,,,0.00,Wunderground v.1.15,2013-02-02 23:52:00,
2013-02-02 19:03:00,45.4,28.8,30.07,South,184,0.0,0.0,52,0.00,,,0.00,Wunderground v.1.15,2013-02-03 00:03:00,
2013-02-02 19:12:00,44.9,28.8,30.07,South,184,0.0,0.0,53,0.00,,,0.00,Wunderground v.1.15,2013-02-03 00:12:00,
2013-02-02 19:22:00,44.8,29.2,30.07,South,184,0.0,0.0,54,0.00,,,0.00,Wunderground v.1.15,2013-02-03 00:22:00,
2013-02-02 19:32:00,45.1,28.5,30.07,South,184,0.0,0.0,52,0.00,,,0.00,Wunderground v.1.15,2013-02-03 00:32:00,
2013-02-02 19:42:00,45.5,30.3,30.08,South,184,0.0,0.0,55,0.00,,,0.00,Wunderground v.1.15,2013-02-03 00:42:00,
2013-02-02 19:52:00,45.7,30.0,30.08,South,184,0.0,0.0,54,0.00,,,0.00,Wunderground v.1.15,2013-02-03 00:52:00,
2013-02-02 20:12:00,46.3,28.7,30.08,South,184,0.0,0.0,50,0.00,,,0.00,Wunderground v.1.15,2013-02-03 01:12:00,
2013-02-02 20:22:00,46.3,31.0,30.09,South,184,0.0,0.0,55,0.00,,,0.00,Wunderground v.1.15,2013-02-03 01:22:00,
2013-02-02 20:32:00,46.3,29.6,30.09,South,184,0.0,0.0,52,0.00,,,0.00,Wunderground v.1.15,2013-02-03 01:32:00,
2013-02-02 20:42:00,46.4,31.5,30.09,South,184,0.0,0.0,56,0.00,,,0.00,Wunderground v.1.15,2013-02-03 01:42:00,
2013-02-02 20:52:00,46.4,30.6,30.10,South,184,0.0,1.0,54,0.00,,,0.00,Wunderground v.1.15,2013-02-03 01:52:00,
2013-02-02 21:02:00,46.7,33.5,30.10,NW,321,0.0,3.0,60,0.00,,,0.00,Wunderground v.1.15,2013-02-03 02:02:00,
2013-02-02 21:12:00,47.8,30.0,30.10,NNW,333,2.0,2.0,50,0.00,,,0.00,Wunderground v.1.15,2013-02-03 02:12:00,
2013-02-02 21:21:00,48.5,29.2,30.10,NNW,338,1.0,1.0,47,0.00,,,0.00,Wunderground v.1.15,2013-02-03 02:21:00,
2013-02-02 21:32:00,49.2,29.3,30.10,NW,306,1.0,1.0,46,0.00,,,0.00,Wunderground v.1.15,2013-02-03 02:32:00,
2013-02-02 21:42:00,49.8,32.9,30.11,SSW,206,2.0,2.0,52,0.00,,,0.00,Wunderground v.1.15,2013-02-03 02:42:00,
2013-02-02 21:53:00,49.9,34.4,30.11,WNW,290,2.0,2.0,55,0.00,,,0.00,Wunderground v.1.15,2013-02-03 02:53:00,
2013-02-02 22:02:00,49.4,35.7,30.11,NW,309,1.0,1.0,59,0.00,,,0.00,Wunderground v.1.15,2013-02-03 03:02:00,
2013-02-02 22:12:00,48.8,36.4,30.08,WSW,250,1.0,1.0,62,0.00,,,0.00,Wunderground v.1.15,2013-02-03 03:12:00,
2013-02-02 22:22:00,48.2,37.0,30.08,West,269,0.0,0.0,65,0.00,,,0.00,Wunderground v.1.15,2013-02-03 03:22:00,
2013-02-02 22:32:00,48.1,37.7,30.08,SW,226,0.0,0.0,67,0.00,,,0.00,Wunderground v.1.15,2013-02-03 03:32:00,
2013-02-02 22:42:00,47.9,37.8,30.07,West,279,0.0,0.0,68,0.00,,,0.00,Wunderground v.1.15,2013-02-03 03:42:00,
2013-02-02 22:52:00,47.8,38.1,30.07,West,279,0.0,0.0,69,0.00,,,0.00,Wunderground v.1.15,2013-02-03 03:52:00,
2013-02-02 23:02:00,47.6,38.3,30.07,WNW,301,0.0,0.0,70,0.00,,,0.00,Wunderground v.1.15,2013-02-03 04:02:00,
2013-02-02 23:22:00,47.1,38.9,30.07,WNW,302,0.0,0.0,73,0.00,,,0.00,Wunderground v.1.15,2013-02-03 04:22:00,
2013-02-02 23:32:00,46.9,39.0,30.07,WNW,302,0.0,0.0,74,0.00,,,0.00,Wunderground v.1.15,2013-02-03 04:32:00,
2013-02-02 23:42:00,46.7,39.2,30.06,NW,307,0.0,0.0,75,0.00,,,0.00,Wunderground v.1.15,2013-02-03 04:42:00,
2013-02-02 23:52:00,46.5,39.3,30.05,NNW,332,0.0,0.0,76,0.00,,,0.00,Wunderground v.1.15,2013-02-03 04:52:00,